createdAt,value
2016-06-07T00:00:10.897Z,89.88
2016-06-07T00:01:10.885Z,90.07
2016-06-07T00:02:10.716Z,89.88
2016-06-07T00:03:10.859Z,90.07
2016-06-07T00:04:10.845Z,89.74
2016-06-07T00:05:10.849Z,90.41
2016-06-07T00:06:10.851Z,90.17
2016-06-07T00:07:10.822Z,90.51
2016-06-07T00:08:10.809Z,90.51
2016-06-07T00:09:10.796Z,90.51
2016-06-07T00:10:10.784Z,90.41
2016-06-07T00:11:10.630Z,90.31
2016-06-07T00:12:10.774Z,90.12
2016-06-07T00:13:10.760Z,90.6
2016-06-07T00:14:10.762Z,90.6
2016-06-07T00:15:10.750Z,90.41
2016-06-07T00:16:10.737Z,89.74
2016-06-07T00:17:10.724Z,90.41
2016-06-07T00:18:10.711Z,90.6
2016-06-07T00:19:10.714Z,90.12
2016-06-07T00:20:10.701Z,90.8
2016-06-07T00:21:10.689Z,90.8
2016-06-07T00:22:10.676Z,90.8
2016-06-07T00:23:10.662Z,90.8
2016-06-07T00:24:10.649Z,90.51
2016-06-07T00:25:10.636Z,90.99
2016-06-07T00:26:10.639Z,90.8
2016-06-07T00:27:10.625Z,90.8
2016-06-07T00:28:10.614Z,90.89
2016-06-07T00:29:10.601Z,90.89
2016-06-07T00:30:10.603Z,91.08
2016-06-07T00:31:10.590Z,91.47
2016-06-07T00:32:10.577Z,91.37
2016-06-07T00:33:10.564Z,91.61
2016-06-07T00:34:10.552Z,91.56
2016-06-07T00:35:10.538Z,91.75
2016-06-07T00:36:10.557Z,92.33
2016-06-07T00:37:10.527Z,92
2016-06-07T00:38:10.516Z,91.85
2016-06-07T00:39:10.518Z,91.13
2016-06-07T00:40:10.504Z,91.9
2016-06-07T00:41:10.492Z,91.81
2016-06-07T00:42:10.479Z,92
2016-06-07T00:43:10.482Z,91.9
2016-06-07T00:44:10.453Z,91.9
2016-06-07T00:45:10.456Z,92.19
2016-06-07T00:46:10.443Z,92.38
2016-06-07T00:47:10.430Z,92.1
2016-06-07T00:48:10.417Z,92.38
2016-06-07T00:49:10.404Z,92.38
2016-06-07T00:50:10.391Z,92.1
2016-06-07T00:51:10.831Z,92.38
2016-06-07T00:52:10.381Z,92.1
2016-06-07T00:53:10.368Z,92.57
2016-06-07T00:54:10.355Z,92.67
2016-06-07T00:55:10.342Z,92.38
2016-06-07T00:56:10.361Z,92.38
2016-06-07T00:57:10.332Z,92.1
2016-06-07T00:58:10.319Z,93.15
2016-06-07T00:59:10.306Z,92.96
2016-06-07T01:00:10.309Z,92.96
2016-06-07T01:01:10.296Z,92.77
2016-06-07T01:02:10.283Z,92.86
2016-06-07T01:03:10.270Z,93.54
2016-06-07T01:04:10.257Z,93.44
2016-06-07T01:05:10.244Z,93.73
2016-06-07T01:06:11.168Z,93.82
2016-06-07T01:07:10.233Z,94.11
2016-06-07T01:08:10.221Z,94.01
2016-06-07T01:09:10.208Z,94.69
2016-06-07T01:10:10.196Z,94.49
2016-06-07T01:11:10.182Z,95.26
2016-06-07T01:12:10.184Z,96.03
2016-06-07T01:13:10.171Z,95.75
2016-06-07T01:14:10.159Z,95.55
2016-06-07T01:15:10.146Z,95.65
2016-06-07T01:16:10.132Z,95.75
2016-06-07T01:17:10.135Z,95.26
2016-06-07T01:18:10.123Z,95.07
2016-06-07T01:19:10.109Z,94.88
2016-06-07T01:20:10.112Z,94.88
2016-06-07T01:21:10.631Z,94.49
2016-06-07T01:22:10.071Z,94.21
2016-06-07T01:23:10.073Z,94.4
2016-06-07T01:24:10.061Z,94.4
2016-06-07T01:25:10.047Z,94.31
2016-06-07T01:26:10.035Z,94.49
2016-06-07T01:27:10.037Z,94.59
2016-06-07T01:28:10.009Z,94.49
2016-06-07T01:29:10.011Z,94.59
2016-06-07T01:30:09.999Z,94.59
2016-06-07T01:31:09.986Z,93.82
2016-06-07T01:32:09.973Z,93.92
2016-06-07T01:33:09.960Z,93.92
2016-06-07T01:34:09.947Z,94.01
2016-06-07T01:35:09.949Z,94.21
2016-06-07T01:36:09.937Z,94.21
2016-06-07T01:37:09.924Z,93.92
2016-06-07T01:38:09.911Z,94.01
2016-06-07T01:39:09.898Z,93.92
2016-06-07T01:40:09.901Z,93.68
2016-06-07T01:41:09.888Z,94.07
2016-06-07T01:42:09.875Z,93.82
2016-06-07T01:43:09.862Z,94.21
2016-06-07T01:44:09.848Z,94.98
2016-06-07T01:45:09.835Z,94.31
2016-06-07T01:46:09.838Z,94.35
2016-06-07T01:47:09.825Z,94.59
2016-06-07T01:48:09.816Z,94.31
2016-06-07T01:49:09.819Z,94.45
2016-06-07T01:50:09.820Z,93.87
2016-06-07T01:51:09.979Z,93.87
2016-06-07T01:52:09.824Z,93.97
2016-06-07T01:53:09.824Z,93.97
2016-06-07T01:54:09.832Z,93.87
2016-06-07T01:55:09.824Z,93.97
2016-06-07T01:56:09.818Z,93.77
2016-06-07T01:57:09.809Z,93.87
2016-06-07T01:58:09.817Z,93.59
2016-06-07T01:59:09.806Z,93.97
2016-06-07T02:00:09.794Z,94.26
2016-06-07T02:01:09.783Z,94.45
2016-06-07T02:02:09.616Z,94.26
2016-06-07T02:03:09.761Z,94.26
2016-06-07T02:04:09.749Z,94.54
2016-06-07T02:05:09.753Z,94.74
2016-06-07T02:06:09.960Z,94.74
2016-06-07T02:07:09.744Z,95.12
2016-06-07T02:08:09.717Z,95.21
2016-06-07T02:09:09.704Z,95.21
2016-06-07T02:10:09.707Z,95.31
2016-06-07T02:11:09.693Z,95.31
2016-06-07T02:12:09.682Z,95.31
2016-06-07T02:13:09.669Z,95.31
2016-06-07T02:14:09.672Z,95.21
2016-06-07T02:15:09.643Z,95.21
2016-06-07T02:16:09.630Z,95.6
2016-06-07T02:17:09.617Z,95.31
2016-06-07T02:18:09.621Z,95.89
2016-06-07T02:19:09.607Z,95.03
2016-06-07T02:20:09.438Z,94.93
2016-06-07T02:21:09.596Z,95.79
2016-06-07T02:22:09.568Z,95.5
2016-06-07T02:23:09.571Z,95.5
2016-06-07T02:24:09.558Z,95.89
2016-06-07T02:25:09.545Z,95.31
2016-06-07T02:26:09.532Z,95.5
2016-06-07T02:27:09.520Z,95.6
2016-06-07T02:28:09.522Z,95.7
2016-06-07T02:29:09.493Z,95.7
2016-06-07T02:30:09.480Z,96.27
2016-06-07T02:31:09.483Z,96.75
2016-06-07T02:32:09.470Z,96.56
2016-06-07T02:33:09.457Z,96.56
2016-06-07T02:34:09.445Z,95.79
2016-06-07T02:35:09.431Z,96.18
2016-06-07T02:36:09.434Z,95.79
2016-06-07T02:37:09.655Z,95.31
2016-06-07T02:38:09.408Z,95.84
2016-06-07T02:39:09.395Z,95.75
2016-06-07T02:40:09.383Z,95.75
2016-06-07T02:41:09.369Z,95.7
2016-06-07T02:42:09.247Z,95.84
2016-06-07T02:43:09.359Z,95.84
2016-06-07T02:44:09.346Z,95.55
2016-06-07T02:45:09.333Z,95.5
2016-06-07T02:46:09.321Z,95.65
2016-06-07T02:47:09.307Z,95.36
2016-06-07T02:48:09.294Z,95.36
2016-06-07T02:49:09.328Z,95.75
2016-06-07T02:50:09.269Z,95.65
2016-06-07T02:51:09.866Z,95.94
2016-06-07T02:52:09.257Z,95.55
2016-06-07T02:53:09.246Z,94.98
2016-06-07T02:54:09.232Z,95.55
2016-06-07T02:55:09.235Z,95.84
2016-06-07T02:56:09.223Z,95.75
2016-06-07T02:57:09.193Z,95.46
2016-06-07T02:58:09.196Z,95.55
2016-06-07T02:59:09.184Z,95.36
2016-06-07T03:00:09.171Z,95.55
2016-06-07T03:01:09.157Z,95.55
2016-06-07T03:02:09.145Z,95.55
2016-06-07T03:03:09.131Z,95.55
2016-06-07T03:04:09.119Z,95.46
2016-06-07T03:05:09.122Z,95.75
2016-06-07T03:06:09.108Z,95.55
2016-06-07T03:07:09.267Z,95.84
2016-06-07T03:08:09.083Z,95.75
2016-06-07T03:09:09.070Z,95.75
2016-06-07T03:10:09.072Z,95.55
2016-06-07T03:11:09.091Z,95.55
2016-06-07T03:12:09.061Z,95.46
2016-06-07T03:13:08.877Z,95.46
2016-06-07T03:14:09.036Z,95.75
2016-06-07T03:15:09.007Z,95.17
2016-06-07T03:16:08.994Z,95.55
2016-06-07T03:17:08.982Z,95.55
2016-06-07T03:18:08.828Z,95.26
2016-06-07T03:19:08.972Z,95.75
2016-06-07T03:20:09.005Z,95.55
2016-06-07T03:21:08.946Z,95.65
2016-06-07T03:22:08.933Z,95.46
2016-06-07T03:23:08.920Z,95.26
2016-06-07T03:24:08.923Z,95.65
2016-06-07T03:25:08.910Z,95.55
2016-06-07T03:26:08.897Z,95.65
2016-06-07T03:27:08.884Z,95.65
2016-06-07T03:28:08.871Z,95.84
2016-06-07T03:29:08.857Z,95.55
2016-06-07T03:30:08.892Z,95.65
2016-06-07T03:31:08.832Z,95.94
2016-06-07T03:32:08.851Z,95.65
2016-06-07T03:33:08.822Z,95.84
2016-06-07T03:34:08.809Z,95.26
2016-06-07T03:35:08.795Z,95.94
2016-06-07T03:36:09.126Z,96.03
2016-06-07T03:37:08.801Z,95.94
2016-06-07T03:38:08.756Z,96.32
2016-06-07T03:39:08.744Z,96.13
2016-06-07T03:40:08.747Z,96.22
2016-06-07T03:41:08.750Z,96.13
2016-06-07T03:42:08.721Z,96.13
2016-06-07T03:43:08.755Z,96.61
2016-06-07T03:44:08.695Z,96.42
2016-06-07T03:45:08.682Z,96.61
2016-06-07T03:46:08.685Z,96.61
2016-06-07T03:47:08.672Z,96.51
2016-06-07T03:48:08.643Z,96.99
2016-06-07T03:49:08.646Z,96.7
2016-06-07T03:50:08.633Z,96.89
2016-06-07T03:51:08.667Z,96.32
2016-06-07T03:52:09.263Z,96.51
2016-06-07T03:53:08.594Z,96.8
2016-06-07T03:54:08.582Z,96.89
2016-06-07T03:55:08.646Z,96.51
2016-06-07T03:56:08.571Z,96.61
2016-06-07T03:57:08.557Z,96.7
2016-06-07T03:58:08.545Z,96.61
2016-06-07T03:59:08.532Z,96.7
2016-06-07T04:00:08.520Z,97.09
2016-06-07T04:01:08.507Z,96.22
2016-06-07T04:02:08.493Z,96.42
2016-06-07T04:03:08.496Z,96.42
2016-06-07T04:04:08.483Z,96.51
2016-06-07T04:05:08.470Z,96.42
2016-06-07T04:06:08.457Z,96.61
2016-06-07T04:07:09.320Z,96.51
2016-06-07T04:08:08.447Z,96.42
2016-06-07T04:09:08.450Z,96.61
2016-06-07T04:10:08.422Z,96.51
2016-06-07T04:11:08.408Z,96.61
2016-06-07T04:12:08.395Z,96.51
2016-06-07T04:13:08.383Z,96.61
2016-06-07T04:14:08.370Z,96.61
2016-06-07T04:15:08.356Z,96.61
2016-06-07T04:16:08.358Z,96.42
2016-06-07T04:17:08.347Z,96.42
2016-06-07T04:18:08.334Z,96.61
2016-06-07T04:19:08.321Z,96.22
2016-06-07T04:20:08.307Z,96.61
2016-06-07T04:21:08.294Z,96.51
2016-06-07T04:22:09.094Z,96.42
2016-06-07T04:23:08.332Z,96.42
2016-06-07T04:24:08.272Z,96.51
2016-06-07T04:25:08.258Z,96.61
2016-06-07T04:26:08.245Z,96.61
2016-06-07T04:27:08.233Z,96.61
2016-06-07T04:28:08.220Z,96.42
2016-06-07T04:29:08.207Z,95.94
2016-06-07T04:30:08.193Z,96.22
2016-06-07T04:31:08.197Z,96.51
2016-06-07T04:32:08.184Z,96.32
2016-06-07T04:33:08.170Z,96.03
2016-06-07T04:34:08.158Z,96.32
2016-06-07T04:35:08.144Z,96.61
2016-06-07T04:36:08.132Z,96.61
2016-06-07T04:37:08.494Z,96.51
2016-06-07T04:38:08.122Z,96.32
2016-06-07T04:39:07.952Z,96.32
2016-06-07T04:40:08.096Z,96.22
2016-06-07T04:41:08.083Z,96.32
2016-06-07T04:42:08.086Z,96.42
2016-06-07T04:43:08.056Z,96.51
2016-06-07T04:44:08.060Z,96.47
2016-06-07T04:45:08.046Z,96.32
2016-06-07T04:46:08.033Z,96.47
2016-06-07T04:47:08.021Z,96.37
2016-06-07T04:48:08.008Z,96.47
2016-06-07T04:49:07.995Z,96.56
2016-06-07T04:50:08.013Z,96.47
2016-06-07T04:51:07.985Z,96.37
2016-06-07T04:52:07.971Z,96.37
2016-06-07T04:53:07.958Z,96.75
2016-06-07T04:54:07.946Z,97.52
2016-06-07T04:55:07.793Z,97.33
2016-06-07T04:56:08.576Z,97.24
2016-06-07T04:57:07.923Z,97.42
2016-06-07T04:58:07.754Z,97.24
2016-06-07T04:59:07.897Z,97.33
2016-06-07T05:00:07.884Z,97.33
2016-06-07T05:01:07.715Z,97.04
2016-06-07T05:02:07.873Z,97.42
2016-06-07T05:03:07.860Z,97.57
2016-06-07T05:04:07.848Z,97.19
2016-06-07T05:05:07.835Z,97.19
2016-06-07T05:06:07.838Z,96.8
2016-06-07T05:07:07.950Z,97.19
2016-06-07T05:08:07.812Z,97.19
2016-06-07T05:09:07.798Z,96.89
2016-06-07T05:10:07.786Z,96.32
2016-06-07T05:11:07.773Z,96.61
2016-06-07T05:12:07.759Z,96.51
2016-06-07T05:13:07.747Z,96.61
2016-06-07T05:14:07.750Z,96.7
2016-06-07T05:15:07.737Z,96.42
2016-06-07T05:16:07.724Z,96.22
2016-06-07T05:17:07.710Z,95.84
2016-06-07T05:18:07.745Z,95.7
2016-06-07T05:19:07.700Z,94.93
2016-06-07T05:20:07.891Z,94.69
2016-06-07T05:21:07.674Z,94.54
2016-06-07T05:22:08.053Z,94.93
2016-06-07T05:23:07.649Z,94.73
2016-06-07T05:24:07.636Z,95.03
2016-06-07T05:25:07.748Z,95.03
2016-06-07T05:26:07.626Z,94.26
2016-06-07T05:27:07.629Z,94.54
2016-06-07T05:28:07.600Z,94.26
2016-06-07T05:29:07.602Z,94.64
2016-06-07T05:30:07.589Z,94.54
2016-06-07T05:31:07.576Z,93.87
2016-06-07T05:32:07.563Z,93.87
2016-06-07T05:33:07.551Z,93.49
2016-06-07T05:34:07.538Z,93.39
2016-06-07T05:35:07.541Z,92.72
2016-06-07T05:36:07.528Z,92.86
2016-06-07T05:37:07.530Z,93.05
2016-06-07T05:38:07.502Z,92.29
2016-06-07T05:39:07.489Z,91.71
2016-06-07T05:40:07.523Z,92.09
2016-06-07T05:41:07.478Z,92.09
2016-06-07T05:42:07.997Z,91.99
2016-06-07T05:43:07.453Z,91.71
2016-06-07T05:44:07.456Z,90.36
2016-06-07T05:45:07.442Z,90.69
2016-06-07T05:46:07.430Z,90.36
2016-06-07T05:47:07.416Z,91.17
2016-06-07T05:48:07.419Z,90.12
2016-06-07T05:49:07.406Z,90.41
2016-06-07T05:50:07.393Z,89.54
2016-06-07T05:51:07.380Z,89.25
2016-06-07T05:52:07.383Z,89.15
2016-06-07T05:53:07.370Z,88.67
2016-06-07T05:54:07.358Z,88.96
2016-06-07T05:55:07.344Z,88.19
2016-06-07T05:56:07.347Z,88.29
2016-06-07T05:57:07.335Z,88.39
2016-06-07T05:58:07.322Z,88.87
2016-06-07T05:59:07.324Z,89.39
2016-06-07T06:00:07.310Z,89.01
2016-06-07T06:01:07.299Z,88.14
2016-06-07T06:02:07.301Z,88.24
2016-06-07T06:03:07.272Z,89.01
2016-06-07T06:04:07.274Z,88.14
2016-06-07T06:05:07.262Z,88.71
2016-06-07T06:06:07.249Z,89.01
2016-06-07T06:07:07.237Z,89.87
2016-06-07T06:08:08.160Z,89.58
2016-06-07T06:09:07.226Z,90.06
2016-06-07T06:10:07.213Z,89.29
2016-06-07T06:11:07.200Z,89.39
2016-06-07T06:12:07.187Z,88.81
2016-06-07T06:13:07.190Z,89.29
2016-06-07T06:14:07.176Z,88.71
2016-06-07T06:15:07.164Z,86.89
2016-06-07T06:16:07.166Z,86.74
2016-06-07T06:17:07.154Z,87.18
2016-06-07T06:18:07.141Z,86.65
2016-06-07T06:19:07.144Z,86.45
2016-06-07T06:20:07.130Z,86.45
2016-06-07T06:21:07.117Z,87.12
2016-06-07T06:22:07.386Z,86.45
2016-06-07T06:23:07.795Z,86.55
2016-06-07T06:24:07.094Z,86.35
2016-06-07T06:25:07.081Z,86.07
2016-06-07T06:26:07.069Z,86.45
2016-06-07T06:27:06.915Z,85.39
2016-06-07T06:28:07.058Z,85.97
2016-06-07T06:29:07.045Z,86.26
2016-06-07T06:30:07.049Z,85.39
2016-06-07T06:31:07.035Z,86.35
2016-06-07T06:32:07.037Z,86.45
2016-06-07T06:33:07.010Z,85
2016-06-07T06:34:07.012Z,85.3
2016-06-07T06:35:06.996Z,85.49
2016-06-07T06:36:06.982Z,85.49
2016-06-07T06:37:06.860Z,85.1
2016-06-07T06:38:06.973Z,85.68
2016-06-07T06:39:06.960Z,85.24
2016-06-07T06:40:06.962Z,84.76
2016-06-07T06:41:06.950Z,84.76
2016-06-07T06:42:06.936Z,84.56
2016-06-07T06:43:06.940Z,84.95
2016-06-07T06:44:06.912Z,83.61
2016-06-07T06:45:06.914Z,83.7
2016-06-07T06:46:06.900Z,84.66
2016-06-07T06:47:06.888Z,81.58
2016-06-07T06:48:06.890Z,82.45
2016-06-07T06:49:06.877Z,82.68
2016-06-07T06:50:06.865Z,81.33
2016-06-07T06:51:07.289Z,79.06
2016-06-07T06:52:07.042Z,77.01
2016-06-07T06:53:06.857Z,75.54
2016-06-07T06:54:06.845Z,73.84
2016-06-07T06:55:06.831Z,69.04
2016-06-07T06:56:06.818Z,68.43
2016-06-07T06:57:06.837Z,64.4
2016-06-07T06:58:06.839Z,64.43
2016-06-07T06:59:06.811Z,64.75
2016-06-07T07:00:06.797Z,59.64
2016-06-07T07:01:06.784Z,59.38
2016-06-07T07:02:06.803Z,58.44
2016-06-07T07:03:06.775Z,57.18
2016-06-07T07:04:06.777Z,59.22
2016-06-07T07:05:06.765Z,59
2016-06-07T07:06:06.752Z,61.58
2016-06-07T07:07:06.598Z,61.24
2016-06-07T07:08:06.741Z,61.52
2016-06-07T07:09:06.728Z,61.55
2016-06-07T07:10:06.731Z,60.23
2016-06-07T07:11:06.718Z,59.12
2016-06-07T07:12:06.720Z,58.4
2016-06-07T07:13:06.707Z,56.87
2016-06-07T07:14:06.695Z,55.44
2016-06-07T07:15:06.698Z,54.6
2016-06-07T07:16:06.684Z,53.23
2016-06-07T07:17:06.703Z,51.8
2016-06-07T07:18:06.690Z,51.31
2016-06-07T07:19:06.677Z,48.88
2016-06-07T07:20:06.867Z,49.34
2016-06-07T07:21:06.666Z,52.43
2016-06-07T07:22:06.936Z,52.14
2016-06-07T07:23:06.656Z,52.23
2016-06-07T07:24:06.643Z,51.17
2016-06-07T07:25:06.647Z,51.65
2016-06-07T07:26:06.633Z,50.38
2016-06-07T07:27:06.636Z,49.34
2016-06-07T07:28:06.622Z,48.83
2016-06-07T07:29:06.469Z,50.9
2016-06-07T07:30:06.628Z,48.95
2016-06-07T07:31:06.616Z,49.66
2016-06-07T07:32:06.618Z,47.44
2016-06-07T07:33:06.621Z,45.88
2016-06-07T07:34:06.608Z,46.49
2016-06-07T07:35:06.627Z,45.12
2016-06-07T07:36:06.613Z,47.39
2016-06-07T07:37:07.257Z,46.14
2016-06-07T07:38:06.604Z,45.65
2016-06-07T07:39:06.590Z,46.17
2016-06-07T07:40:06.592Z,45.02
2016-06-07T07:41:06.595Z,43.77
2016-06-07T07:42:06.599Z,42.42
2016-06-07T07:43:06.585Z,41.83
2016-06-07T07:44:06.588Z,43.62
2016-06-07T07:45:06.590Z,42.44
2016-06-07T07:46:06.593Z,41.58
2016-06-07T07:47:06.580Z,41.58
2016-06-07T07:48:06.584Z,39.54
2016-06-07T07:49:06.601Z,40.92
2016-06-07T07:50:06.588Z,40.9
2016-06-07T07:51:06.591Z,38.75
2016-06-07T07:52:07.328Z,39.25
2016-06-07T07:53:06.581Z,39.06
2016-06-07T07:54:06.583Z,39.15
2016-06-07T07:55:06.586Z,39.25
2016-06-07T07:56:06.589Z,39.66
2016-06-07T07:57:06.575Z,38.49
2016-06-07T07:58:06.594Z,38.39
2016-06-07T07:59:06.581Z,37.82
2016-06-07T08:00:06.584Z,38.53
2016-06-07T08:01:06.586Z,37.25
2016-06-07T08:02:06.589Z,36.49
2016-06-07T08:03:06.592Z,36.58
2016-06-07T08:04:06.594Z,35.33
2016-06-07T08:05:06.582Z,36.11
2016-06-07T08:06:06.584Z,36.01
2016-06-07T08:07:06.446Z,35.82
2016-06-07T08:08:06.606Z,34.64
2016-06-07T08:09:06.593Z,34.83
2016-06-07T08:10:06.596Z,34.54
2016-06-07T08:11:06.598Z,34.93
2016-06-07T08:12:06.601Z,34.44
2016-06-07T08:13:06.604Z,35.52
2016-06-07T08:14:06.606Z,35.42
2016-06-07T08:15:06.609Z,34.74
2016-06-07T08:16:06.595Z,34.85
2016-06-07T08:17:06.598Z,34.85
2016-06-07T08:18:06.648Z,32.81
2016-06-07T08:19:06.604Z,33.29
2016-06-07T08:20:06.607Z,34.87
2016-06-07T08:21:06.609Z,34.77
2016-06-07T08:22:06.799Z,35.93
2016-06-07T08:23:06.645Z,35.6
2016-06-07T08:24:06.618Z,35.88
2016-06-07T08:25:06.620Z,35.55
2016-06-07T08:26:06.466Z,37
2016-06-07T08:27:06.625Z,38.16
2016-06-07T08:28:06.628Z,37.18
2016-06-07T08:29:06.630Z,36.49
2016-06-07T08:30:06.634Z,37.98
2016-06-07T08:31:06.636Z,37.18
2016-06-07T08:32:06.639Z,38.35
2016-06-07T08:33:06.626Z,39.31
2016-06-07T08:34:06.644Z,39.2
2016-06-07T08:35:06.646Z,39.57
2016-06-07T08:36:06.634Z,40.45
2016-06-07T08:37:06.481Z,39.96
2016-06-07T08:38:06.640Z,40.04
2016-06-07T08:39:06.642Z,40.16
2016-06-07T08:40:06.645Z,39.86
2016-06-07T08:41:06.631Z,37.24
2016-06-07T08:42:06.635Z,37.04
2016-06-07T08:43:06.637Z,39.23
2016-06-07T08:44:06.640Z,37.79
2016-06-07T08:45:06.642Z,37.43
2016-06-07T08:46:06.645Z,36.18
2016-06-07T08:47:06.820Z,35.82
2016-06-07T08:48:06.651Z,34.74
2016-06-07T08:49:06.653Z,32.2
2016-06-07T08:50:06.656Z,32.31
2016-06-07T08:51:06.658Z,31.63
2016-06-07T08:52:06.646Z,32.43
2016-06-07T08:53:06.664Z,31.35
2016-06-07T08:54:06.667Z,31.84
2016-06-07T08:55:06.653Z,31.64
2016-06-07T08:56:06.656Z,31.25
2016-06-07T08:57:06.659Z,33.98
2016-06-07T08:58:06.678Z,34.93
2016-06-07T08:59:06.664Z,34.62
2016-06-07T09:00:06.683Z,35.31
2016-06-07T09:01:06.670Z,35.39
2016-06-07T09:02:06.672Z,35.47
2016-06-07T09:03:06.675Z,35.27
2016-06-07T09:04:06.678Z,34.77
2016-06-07T09:05:06.680Z,36.41
2016-06-07T09:06:06.683Z,38.35
2016-06-07T09:07:06.686Z,39.12
2016-06-07T09:08:06.688Z,38.24
2016-06-07T09:09:06.691Z,38.9
2016-06-07T09:10:06.679Z,39.18
2016-06-07T09:11:06.540Z,41.7
2016-06-07T09:12:06.685Z,40.04
2016-06-07T09:13:06.687Z,39.67
2016-06-07T09:14:06.690Z,39.49
2016-06-07T09:15:06.692Z,40.17
2016-06-07T09:16:06.695Z,38.82
2016-06-07T09:17:06.698Z,38.26
2016-06-07T09:18:06.700Z,37.39
2016-06-07T09:19:06.546Z,36.53
2016-06-07T09:20:06.909Z,34.88
2016-06-07T09:21:06.708Z,33.22
2016-06-07T09:22:06.712Z,33.72
2016-06-07T09:23:06.714Z,34.51
2016-06-07T09:24:06.700Z,33.64
2016-06-07T09:25:06.719Z,35.5
2016-06-07T09:26:06.722Z,36.01
2016-06-07T09:27:06.725Z,33.48
2016-06-07T09:28:06.728Z,31.53
2016-06-07T09:29:06.730Z,31.63
2016-06-07T09:30:06.732Z,32.43
2016-06-07T09:31:06.735Z,32.43
2016-06-07T09:32:06.739Z,30.36
2016-06-07T09:33:06.584Z,29.09
2016-06-07T09:34:06.759Z,31.84
2016-06-07T09:35:06.747Z,30.58
2016-06-07T09:36:06.749Z,28.41
2016-06-07T09:37:06.751Z,30.17
2016-06-07T09:38:06.613Z,29.48
2016-06-07T09:39:06.757Z,30.27
2016-06-07T09:40:06.774Z,30.17
2016-06-07T09:41:06.777Z,29.09
2016-06-07T09:42:06.796Z,29.2
2016-06-07T09:43:06.783Z,28.81
2016-06-07T09:44:06.785Z,29.9
2016-06-07T09:45:06.788Z,28.72
2016-06-07T09:46:06.790Z,30.88
2016-06-07T09:47:06.638Z,31.48
2016-06-07T09:48:06.796Z,29.43
2016-06-07T09:49:06.815Z,30.21
2016-06-07T09:50:06.802Z,30.51
2016-06-07T09:51:06.820Z,28.05
2016-06-07T09:52:06.823Z,27.56
2016-06-07T09:53:06.826Z,28.05
2016-06-07T09:54:06.844Z,28.74
2016-06-07T09:55:06.831Z,29.23
2016-06-07T09:56:06.834Z,29.14
2016-06-07T09:57:06.852Z,30.22
2016-06-07T09:58:06.839Z,30.15
2016-06-07T09:59:06.858Z,29.34
2016-06-07T10:00:06.860Z,29.94
2016-06-07T10:01:06.863Z,27.58
2016-06-07T10:02:06.866Z,27.96
2016-06-07T10:03:06.868Z,29.34
2016-06-07T10:04:06.871Z,29.74
2016-06-07T10:05:06.889Z,27.58
2016-06-07T10:06:06.877Z,27.87
2016-06-07T10:07:06.738Z,26.58
2016-06-07T10:08:07.085Z,28.27
2016-06-07T10:09:06.900Z,27.58
2016-06-07T10:10:06.903Z,28.66
2016-06-07T10:11:06.921Z,30.52
2016-06-07T10:12:06.923Z,29.41
2016-06-07T10:13:06.926Z,31.54
2016-06-07T10:14:06.929Z,31.53
2016-06-07T10:15:06.932Z,32.1
2016-06-07T10:16:06.935Z,31.9
2016-06-07T10:17:06.937Z,31.3
2016-06-07T10:18:06.940Z,32.78
2016-06-07T10:19:06.943Z,32.59
2016-06-07T10:20:06.947Z,30.42
2016-06-07T10:21:06.964Z,30.24
2016-06-07T10:22:06.966Z,31.61
2016-06-07T10:23:06.986Z,31.51
2016-06-07T10:24:06.988Z,31.63
2016-06-07T10:25:06.974Z,31.64
2016-06-07T10:26:06.978Z,30.58
2016-06-07T10:27:06.980Z,31.77
2016-06-07T10:28:06.983Z,28.54
2016-06-07T10:29:07.001Z,27.36
2016-06-07T10:30:08.082Z,27.75
2016-06-07T10:31:06.990Z,26.97
2016-06-07T10:32:07.010Z,30.6
2016-06-07T10:33:07.012Z,29.43
2016-06-07T10:34:07.015Z,29.92
2016-06-07T10:35:07.018Z,28.05
2016-06-07T10:36:07.036Z,27.34
2016-06-07T10:37:07.039Z,29.1
2016-06-07T10:38:07.431Z,29.39
2016-06-07T10:39:07.217Z,31.28
2016-06-07T10:40:07.047Z,27.36
2016-06-07T10:41:07.050Z,30.19
2016-06-07T10:42:07.068Z,28.23
2016-06-07T10:43:07.055Z,29.23
2016-06-07T10:44:07.073Z,30.21
2016-06-07T10:45:07.076Z,27.37
2016-06-07T10:46:07.078Z,27.27
2016-06-07T10:47:07.081Z,29.25
2016-06-07T10:48:07.083Z,27.97
2016-06-07T10:49:07.087Z,26.5
2016-06-07T10:50:07.089Z,28.28
2016-06-07T10:51:07.108Z,26.71
2016-06-07T10:52:07.110Z,26.62
2016-06-07T10:53:07.113Z,26.82
2016-06-07T10:54:07.006Z,26.42
2016-06-07T10:55:07.147Z,26.42
2016-06-07T10:56:07.149Z,28.5
2016-06-07T10:57:07.182Z,24.17
2016-06-07T10:58:07.200Z,27.01
2016-06-07T10:59:07.218Z,26.53
2016-06-07T11:00:07.228Z,28.28
2016-06-07T11:01:07.250Z,29.17
2016-06-07T11:02:07.258Z,26.81
2016-06-07T11:03:07.267Z,28.09
2016-06-07T11:04:07.275Z,29.78
2016-06-07T11:05:07.280Z,26.13
2016-06-07T11:06:07.284Z,26.82
2016-06-07T11:07:07.289Z,25.74
2016-06-07T11:08:07.325Z,26.72
2016-06-07T11:09:07.330Z,26.82
2016-06-07T11:10:07.318Z,26.82
2016-06-07T11:11:07.321Z,25.15
2016-06-07T11:12:07.340Z,26.62
2016-06-07T11:13:07.344Z,27.81
2016-06-07T11:14:07.346Z,27.79
2016-06-07T11:15:07.350Z,25.33
2016-06-07T11:16:07.353Z,25.04
2016-06-07T11:17:07.372Z,23.27
2016-06-07T11:18:07.375Z,25.04
2016-06-07T11:19:07.378Z,26.32
2016-06-07T11:20:07.584Z,22.97
2016-06-07T11:21:07.400Z,23.16
2016-06-07T11:22:07.402Z,26.41
2016-06-07T11:23:08.045Z,25.14
2016-06-07T11:24:07.266Z,24.55
2016-06-07T11:25:07.410Z,23.28
2016-06-07T11:26:07.428Z,22.99
2016-06-07T11:27:07.430Z,22.19
2016-06-07T11:28:07.450Z,24.66
2016-06-07T11:29:07.452Z,21.91
2016-06-07T11:30:07.439Z,24.96
2016-06-07T11:31:07.457Z,22.09
2016-06-07T11:32:07.461Z,23.64
2016-06-07T11:33:07.479Z,24.02
2016-06-07T11:34:07.482Z,24.12
2016-06-07T11:35:07.530Z,25.96
2016-06-07T11:36:07.487Z,26.75
2016-06-07T11:37:07.489Z,23.82
2016-06-07T11:38:07.507Z,26.98
2016-06-07T11:39:07.510Z,24.53
2016-06-07T11:40:07.512Z,24.93
2016-06-07T11:41:07.531Z,23.46
2016-06-07T11:42:07.549Z,23.43
2016-06-07T11:43:07.662Z,24.88
2016-06-07T11:44:07.555Z,24.7
2016-06-07T11:45:07.557Z,24.12
2016-06-07T11:46:07.560Z,23.05
2016-06-07T11:47:07.625Z,24.12
2016-06-07T11:48:07.565Z,23.44
2016-06-07T11:49:07.584Z,23.32
2016-06-07T11:50:07.603Z,24.79
2016-06-07T11:51:07.606Z,26.97
2016-06-07T11:52:07.608Z,24.62
2016-06-07T11:53:07.611Z,23.24
2016-06-07T11:54:08.003Z,25.42
2016-06-07T11:55:07.631Z,24.64
2016-06-07T11:56:07.633Z,25.23
2016-06-07T11:57:07.497Z,21.19
2016-06-07T11:58:07.655Z,22.67
2016-06-07T11:59:07.658Z,22.67
2016-06-07T12:00:07.677Z,21.98
2016-06-07T12:01:07.679Z,22.37
2016-06-07T12:02:07.666Z,21.29
2016-06-07T12:03:07.684Z,24.34
2016-06-07T12:04:07.530Z,24.73
2016-06-07T12:05:07.674Z,25.03
2016-06-07T12:06:07.693Z,25.92
2016-06-07T12:07:07.696Z,22.27
2016-06-07T12:08:07.698Z,22.17
2016-06-07T12:09:07.560Z,24.32
2016-06-07T12:10:07.718Z,23.14
2016-06-07T12:11:07.721Z,23.73
2016-06-07T12:12:07.770Z,23.05
2016-06-07T12:13:07.726Z,22.37
2016-06-07T12:14:07.729Z,23.26
2016-06-07T12:15:07.748Z,23.37
2016-06-07T12:16:07.751Z,21.7
2016-06-07T12:17:07.753Z,23.37
2016-06-07T12:18:07.756Z,23.87
2016-06-07T12:19:07.759Z,22.99
2016-06-07T12:20:07.776Z,23.16
2016-06-07T12:21:07.779Z,25.33
2016-06-07T12:22:07.782Z,23.47
2016-06-07T12:23:07.785Z,22.88
2016-06-07T12:24:07.803Z,25.44
2016-06-07T12:25:07.790Z,24.86
2016-06-07T12:26:07.793Z,25.16
2016-06-07T12:27:07.811Z,26.82
2016-06-07T12:28:07.814Z,24.96
2016-06-07T12:29:07.832Z,23.29
2016-06-07T12:30:07.819Z,23.39
2016-06-07T12:31:07.822Z,21.13
2016-06-07T12:32:07.841Z,20.54
2016-06-07T12:33:07.843Z,21.92
2016-06-07T12:34:07.846Z,19.93
2016-06-07T12:35:07.848Z,23.86
2016-06-07T12:36:07.866Z,23.16
2016-06-07T12:37:07.869Z,23.94
2016-06-07T12:38:07.871Z,23.42
2016-06-07T12:39:07.906Z,26.74
2016-06-07T12:40:07.877Z,28.5
2016-06-07T12:41:07.896Z,27.5
2016-06-07T12:42:07.930Z,24.84
2016-06-07T12:43:07.885Z,27.47
2016-06-07T12:44:07.904Z,27.17
2016-06-07T12:45:07.906Z,29.31
2016-06-07T12:46:07.909Z,29.52
2016-06-07T12:47:07.912Z,29.33
2016-06-07T12:48:07.915Z,30.4
2016-06-07T12:49:07.918Z,29.91
2016-06-07T12:50:07.951Z,29.41
2016-06-07T12:51:07.923Z,30.37
2016-06-07T12:52:07.942Z,33.8
2016-06-07T12:53:07.928Z,33.2
2016-06-07T12:54:07.931Z,34.18
2016-06-07T12:55:07.933Z,34.05